createdAt,value
2022-09-11T00:01:46.499Z,11.80
2022-09-11T00:04:14.326Z,11.47
2022-09-11T00:06:43.053Z,12.73
2022-09-11T00:09:10.898Z,12.07
2022-09-11T00:11:41.556Z,14.43
2022-09-11T00:14:10.219Z,12.33
2022-09-11T00:16:41.668Z,15.20
2022-09-11T00:19:12.427Z,16.87
2022-09-11T00:21:40.854Z,12.60
2022-09-11T00:24:10.133Z,14.13
2022-09-11T00:26:38.710Z,15.50
2022-09-11T00:29:06.825Z,17.30
2022-09-11T00:31:34.853Z,17.73
2022-09-11T00:34:04.217Z,13.60
2022-09-11T00:36:32.983Z,13.87
2022-09-11T00:39:01.147Z,12.17
2022-09-11T00:41:31.769Z,12.53
2022-09-11T00:44:03.277Z,11.57
2022-09-11T00:46:35.704Z,12.30
2022-09-11T00:49:16.684Z,13.30
2022-09-11T00:51:47.828Z,13.83
2022-09-11T00:54:20.992Z,11.83
2022-09-11T00:56:50.319Z,12.70
2022-09-11T00:59:21.322Z,13.10
2022-09-11T01:01:49.225Z,13.00
2022-09-11T01:04:18.558Z,13.73
2022-09-11T01:06:46.741Z,11.13
2022-09-11T01:09:14.553Z,11.67
2022-09-11T01:11:54.943Z,15.00
2022-09-11T01:14:34.756Z,11.50
2022-09-11T01:17:16.013Z,7.67
2022-09-11T01:20:14.190Z,9.13
2022-09-11T01:23:04.874Z,8.60
2022-09-11T01:25:46.450Z,9.70
2022-09-11T01:28:17.777Z,10.37
2022-09-11T01:30:48.561Z,10.67
2022-09-11T01:33:25.096Z,9.60
2022-09-11T01:36:00.629Z,10.60
2022-09-11T01:38:36.310Z,10.17
2022-09-11T01:41:10.258Z,10.90
2022-09-11T01:43:43.396Z,10.23
2022-09-11T01:46:17.375Z,8.80
2022-09-11T01:48:48.559Z,11.40
2022-09-11T01:51:21.576Z,10.13
2022-09-11T01:53:52.242Z,10.50
2022-09-11T01:56:24.770Z,10.13
2022-09-11T01:58:58.396Z,11.20
2022-09-11T02:01:31.495Z,11.20
2022-09-11T02:04:07.087Z,11.43
2022-09-11T02:06:38.756Z,12.20
2022-09-11T02:09:10.302Z,12.53
2022-09-11T02:11:41.890Z,10.77
2022-09-11T02:14:17.915Z,11.57
2022-09-11T02:16:50.925Z,12.23
2022-09-11T02:19:20.778Z,13.07
2022-09-11T02:21:49.086Z,11.83
2022-09-11T02:24:17.676Z,15.80
2022-09-11T02:26:49.410Z,15.67
2022-09-11T02:29:18.982Z,15.67
2022-09-11T02:31:47.319Z,13.77
2022-09-11T02:34:16.187Z,14.17
2022-09-11T02:37:13.946Z,16.03
2022-09-11T02:39:55.819Z,17.53
2022-09-11T02:42:38.859Z,18.27
2022-09-11T02:45:23.899Z,17.07
2022-09-11T02:47:59.692Z,18.57
2022-09-11T02:50:34.851Z,17.00
2022-09-11T02:53:07.759Z,19.40
2022-09-11T02:55:45.810Z,18.77
2022-09-11T02:58:18.955Z,16.70
2022-09-11T03:00:48.653Z,13.80
2022-09-11T03:03:16.788Z,15.37
2022-09-11T03:05:44.804Z,20.10
2022-09-11T03:08:14.612Z,18.73
2022-09-11T03:10:42.992Z,20.40
2022-09-11T03:13:10.797Z,22.17
2022-09-11T03:15:38.648Z,23.40
2022-09-11T03:18:08.045Z,25.60
2022-09-11T03:20:35.807Z,23.80
2022-09-11T03:23:09.593Z,27.27
2022-09-11T03:25:37.457Z,29.37
2022-09-11T03:28:05.426Z,33.60
2022-09-11T03:30:34.191Z,28.87
2022-09-11T03:33:02.231Z,28.37
2022-09-11T03:35:31.375Z,28.80
2022-09-11T03:37:59.091Z,26.67
2022-09-11T03:40:27.334Z,28.10
2022-09-11T03:42:55.230Z,26.73
2022-09-11T03:45:23.023Z,26.13
2022-09-11T03:47:50.759Z,25.60
2022-09-11T03:50:18.664Z,27.40
2022-09-11T03:52:47.796Z,27.90
2022-09-11T03:55:16.498Z,26.93
2022-09-11T03:57:44.482Z,25.33
2022-09-11T04:00:13.177Z,25.73
2022-09-11T04:02:42.098Z,25.07
2022-09-11T04:05:10.602Z,30.37
2022-09-11T04:07:38.508Z,26.53
2022-09-11T04:10:08.201Z,21.33
2022-09-11T04:12:36.201Z,20.13
2022-09-11T04:15:04.075Z,16.70
2022-09-11T04:17:32.603Z,16.67
2022-09-11T04:20:00.302Z,15.63
2022-09-11T04:22:28.138Z,17.17
2022-09-11T04:24:57.393Z,14.77
2022-09-11T04:27:27.128Z,15.70
2022-09-11T04:29:54.987Z,17.60
2022-09-11T04:32:22.685Z,17.90
2022-09-11T04:34:50.582Z,17.67
2022-09-11T04:37:19.780Z,20.80
2022-09-11T04:39:50.787Z,22.77
2022-09-11T04:42:18.592Z,21.47
2022-09-11T04:44:47.974Z,26.67
2022-09-11T04:47:17.040Z,25.60
2022-09-11T04:49:46.754Z,27.20
2022-09-11T04:52:18.150Z,28.13
2022-09-11T04:54:46.410Z,32.70
2022-09-11T04:57:14.364Z,35.57
2022-09-11T04:59:42.143Z,38.47
2022-09-11T05:02:11.354Z,41.00
2022-09-11T05:04:39.113Z,37.67
2022-09-11T05:07:06.943Z,38.50
2022-09-11T05:09:35.222Z,40.83
2022-09-11T05:12:04.078Z,33.53
2022-09-11T05:14:32.659Z,30.30
2022-09-11T05:17:01.427Z,32.80
2022-09-11T05:19:30.528Z,22.17
2022-09-11T05:21:58.497Z,27.63
2022-09-11T05:24:26.269Z,25.27
2022-09-11T05:26:53.966Z,24.50
2022-09-11T05:29:23.036Z,21.47
2022-09-11T05:31:52.651Z,22.40
2022-09-11T05:34:22.150Z,21.17
2022-09-11T05:36:52.206Z,22.97
2022-09-11T05:39:20.218Z,25.50
2022-09-11T05:41:50.832Z,32.03
2022-09-11T05:44:18.674Z,27.53
2022-09-11T05:46:46.793Z,29.00
2022-09-11T05:49:14.475Z,35.27
2022-09-11T05:51:42.273Z,32.23
2022-09-11T05:54:11.632Z,36.53
2022-09-11T05:56:39.598Z,35.30
2022-09-11T05:59:14.921Z,35.50
2022-09-11T06:01:43.921Z,32.30
2022-09-11T06:04:12.325Z,31.87
2022-09-11T06:06:40.677Z,31.00
2022-09-11T06:09:08.403Z,38.13
2022-09-11T06:11:37.531Z,36.67
2022-09-11T06:14:05.226Z,39.03
2022-09-11T06:16:33.223Z,41.93
2022-09-11T06:19:01.391Z,35.30
2022-09-11T06:21:29.218Z,35.00
2022-09-11T06:23:57.083Z,32.47
2022-09-11T06:26:26.571Z,40.83
2022-09-11T06:28:55.880Z,38.07
2022-09-11T06:31:25.784Z,34.50
2022-09-11T06:33:54.021Z,34.67
2022-09-11T06:36:24.287Z,37.03
2022-09-11T06:38:55.051Z,34.00
2022-09-11T06:41:22.992Z,33.27
2022-09-11T06:43:51.040Z,30.83
2022-09-11T06:46:21.927Z,26.10
2022-09-11T06:48:50.682Z,25.37
2022-09-11T06:51:20.510Z,26.43
2022-09-11T06:53:49.095Z,27.23
2022-09-11T06:56:18.698Z,29.70
2022-09-11T06:58:47.047Z,29.27
2022-09-11T07:01:16.783Z,25.37
2022-09-11T07:03:47.110Z,26.73
2022-09-11T07:06:16.151Z,26.10
2022-09-11T07:08:44.097Z,27.47
2022-09-11T07:11:12.829Z,26.43
2022-09-11T07:13:42.008Z,27.57
2022-09-11T07:16:12.514Z,28.40
2022-09-11T07:18:41.875Z,27.07
2022-09-11T07:21:13.327Z,25.97
2022-09-11T07:23:43.296Z,27.87
2022-09-11T07:26:13.264Z,26.67
2022-09-11T07:28:41.388Z,28.20
2022-09-11T07:31:11.910Z,28.20
2022-09-11T07:33:40.493Z,31.50
2022-09-11T07:36:11.983Z,30.67
2022-09-11T07:38:40.900Z,28.93
2022-09-11T07:41:08.791Z,28.33
2022-09-11T07:43:36.902Z,31.80
2022-09-11T07:46:05.757Z,30.17
2022-09-11T07:48:34.041Z,30.33
2022-09-11T07:51:04.426Z,30.83
2022-09-11T07:53:35.347Z,28.97
2022-09-11T07:56:04.731Z,28.13
2022-09-11T07:58:35.035Z,30.20
2022-09-11T08:01:03.540Z,28.90
2022-09-11T08:03:31.397Z,28.43
2022-09-11T08:05:59.803Z,27.87
2022-09-11T08:08:29.237Z,29.57
2022-09-11T08:10:58.371Z,28.27
2022-09-11T08:13:26.111Z,28.20
2022-09-11T08:15:53.847Z,29.50
2022-09-11T08:18:21.557Z,27.90
2022-09-11T08:20:49.323Z,27.17
2022-09-11T08:23:17.417Z,27.87
2022-09-11T08:25:45.505Z,29.20
2022-09-11T08:28:15.074Z,25.20
2022-09-11T08:30:43.034Z,25.77
2022-09-11T08:33:14.047Z,23.57
2022-09-11T08:35:42.382Z,22.63
2022-09-11T08:38:10.114Z,22.60
2022-09-11T08:40:39.037Z,21.43
2022-09-11T08:43:07.232Z,22.97
2022-09-11T08:45:36.925Z,21.87
2022-09-11T08:48:09.171Z,23.67
2022-09-11T08:50:40.904Z,22.40
2022-09-11T08:53:15.219Z,21.40
2022-09-11T08:55:46.689Z,21.50
2022-09-11T08:58:24.104Z,20.33
2022-09-11T09:00:58.901Z,20.67
2022-09-11T09:03:49.077Z,20.30
2022-09-11T09:06:28.750Z,19.67
2022-09-11T09:09:04.530Z,21.60
2022-09-11T09:11:39.959Z,20.63
2022-09-11T09:14:51.839Z,19.60
2022-09-11T09:17:24.925Z,19.90
2022-09-11T09:20:00.470Z,19.43
2022-09-11T09:22:37.473Z,20.13
2022-09-11T09:25:11.946Z,18.13
2022-09-11T09:27:43.399Z,20.20
2022-09-11T09:30:16.858Z,18.13
2022-09-11T09:32:50.702Z,20.93
2022-09-11T09:35:24.487Z,20.37
2022-09-11T09:37:52.463Z,20.97
2022-09-11T09:40:20.401Z,21.63
2022-09-11T09:43:14.438Z,20.77
2022-09-11T09:46:04.467Z,21.13
2022-09-11T09:48:40.624Z,21.00
2022-09-11T09:51:13.397Z,20.23
2022-09-11T09:53:45.779Z,20.57
2022-09-11T09:56:17.459Z,21.20
2022-09-11T09:58:51.828Z,19.47
2022-09-11T10:01:44.822Z,22.70
2022-09-11T10:04:17.452Z,23.07
2022-09-11T10:06:46.991Z,21.83
2022-09-11T10:09:28.039Z,25.57
2022-09-11T10:12:02.435Z,22.90
2022-09-11T10:17:31.242Z,23.63
2022-09-11T10:20:21.836Z,22.30
2022-09-11T10:22:50.758Z,20.70
2022-09-11T10:25:21.385Z,22.17
2022-09-11T10:27:59.287Z,20.63
2022-09-11T10:30:31.387Z,21.27
2022-09-11T10:33:03.706Z,21.57
2022-09-11T10:35:35.588Z,21.53
2022-09-11T10:38:17.812Z,23.83
2022-09-11T10:40:59.379Z,24.07
2022-09-11T10:43:35.523Z,20.63
2022-09-11T10:46:05.405Z,20.90
2022-09-11T10:48:33.801Z,20.03
2022-09-11T10:51:10.788Z,21.43
2022-09-11T10:53:48.984Z,17.47
2022-09-11T10:56:17.766Z,17.80
2022-09-11T10:58:51.368Z,15.00
2022-09-11T11:01:21.220Z,15.43
2022-09-11T11:03:49.014Z,15.03
2022-09-11T11:06:32.579Z,16.10
2022-09-11T11:09:30.852Z,16.90
2022-09-11T11:12:18.514Z,16.07
2022-09-11T11:15:01.343Z,15.40
2022-09-11T11:17:38.502Z,15.40
2022-09-11T11:20:22.093Z,14.80
2022-09-11T11:23:16.356Z,14.73
2022-09-11T11:25:54.159Z,14.47
2022-09-11T11:28:43.260Z,18.53
2022-09-11T11:31:23.904Z,17.73
2022-09-11T11:34:09.170Z,17.17
2022-09-11T11:36:42.619Z,17.17
2022-09-11T11:39:23.641Z,16.93
2022-09-11T11:42:01.634Z,17.30
2022-09-11T11:44:33.933Z,17.87
2022-09-11T11:47:06.700Z,15.70
2022-09-11T11:49:48.892Z,17.07
2022-09-11T11:52:38.529Z,15.97
2022-09-11T11:55:18.371Z,17.40
2022-09-11T11:57:56.752Z,15.97
2022-09-11T12:00:25.486Z,16.97
2022-09-11T12:02:59.443Z,15.73
2022-09-11T12:05:30.236Z,14.73
2022-09-11T12:07:59.023Z,15.97
2022-09-11T12:10:34.751Z,17.63
2022-09-11T12:13:07.320Z,16.30
2022-09-11T12:15:36.679Z,16.43
2022-09-11T12:18:08.316Z,14.55
2022-09-11T12:20:41.493Z,13.82
2022-09-11T12:23:46.914Z,13.48
2022-09-11T12:26:22.135Z,13.35
2022-09-11T12:28:50.755Z,13.90
2022-09-11T12:31:19.379Z,14.75
2022-09-11T12:33:57.322Z,12.88
2022-09-11T12:36:37.345Z,12.95
2022-09-11T12:39:23.968Z,14.50
2022-09-11T12:41:53.383Z,12.45
2022-09-11T12:44:54.137Z,11.98
2022-09-11T12:47:24.851Z,12.47
2022-09-11T12:49:57.132Z,12.40
2022-09-11T12:52:35.730Z,13.33
2022-09-11T12:55:22.679Z,14.30
2022-09-11T12:57:52.367Z,13.40
2022-09-11T13:00:24.447Z,12.97
2022-09-11T13:02:56.823Z,12.40
2022-09-11T13:05:28.066Z,12.88
2022-09-11T13:08:00.627Z,12.03
2022-09-11T13:10:33.408Z,11.32
2022-09-11T13:13:04.677Z,11.82
2022-09-11T13:15:37.724Z,13.20
2022-09-11T13:18:32.250Z,10.88
2022-09-11T13:21:03.364Z,13.80
2022-09-11T13:23:31.521Z,11.05
2022-09-11T13:25:59.510Z,10.93
2022-09-11T13:28:31.820Z,12.10
2022-09-11T13:31:02.088Z,8.18
2022-09-11T13:33:32.595Z,9.13
2022-09-11T13:36:03.574Z,9.27
2022-09-11T13:38:34.980Z,8.95
2022-09-11T13:41:06.982Z,8.23
2022-09-11T13:43:39.653Z,9.52
2022-09-11T13:46:12.388Z,9.73
2022-09-11T13:48:40.172Z,7.07
2022-09-11T13:51:13.504Z,8.15
2022-09-11T13:53:43.686Z,6.90
2022-09-11T13:56:21.653Z,7.63
2022-09-11T13:58:53.564Z,10.18
2022-09-11T14:01:21.580Z,8.48
2022-09-11T14:03:49.952Z,7.63
2022-09-11T14:06:20.770Z,7.35
2022-09-11T14:08:52.420Z,8.68
2022-09-11T14:11:26.014Z,7.47
2022-09-11T14:13:59.384Z,6.68
2022-09-11T14:16:31.480Z,7.78
2022-09-11T14:19:03.950Z,7.07
2022-09-11T14:21:34.559Z,6.13
2022-09-11T14:24:07.163Z,7.03
2022-09-11T14:26:42.333Z,5.60
2022-09-11T14:29:25.638Z,5.90
2022-09-11T14:31:54.879Z,6.40
2022-09-11T14:34:26.320Z,6.97
2022-09-11T14:36:57.489Z,8.07
2022-09-11T14:39:34.482Z,7.22
2022-09-11T14:42:03.173Z,7.17
2022-09-11T14:44:32.755Z,7.73
2022-09-11T14:47:00.585Z,7.70
2022-09-11T14:49:29.503Z,8.97
2022-09-11T14:51:59.677Z,8.13
2022-09-11T14:54:31.006Z,10.67
2022-09-11T14:56:59.275Z,8.23
2022-09-11T14:59:29.691Z,9.97
2022-09-11T15:01:59.521Z,7.07
2022-09-11T15:04:29.441Z,6.80
2022-09-11T15:06:57.886Z,8.47
2022-09-11T15:09:25.779Z,7.67
2022-09-11T15:11:53.706Z,8.83
2022-09-11T15:14:44.704Z,7.23
2022-09-11T15:17:14.536Z,8.07
2022-09-11T15:19:45.699Z,8.43
2022-09-11T15:22:13.528Z,9.20
2022-09-11T15:24:41.932Z,8.93
2022-09-11T15:27:11.371Z,10.57
2022-09-11T15:29:39.766Z,8.37
2022-09-11T15:32:09.284Z,7.80
2022-09-11T15:34:39.220Z,9.03
2022-09-11T15:37:07.341Z,10.60
2022-09-11T15:39:35.259Z,9.43
2022-09-11T15:42:03.065Z,8.53
2022-09-11T15:44:31.403Z,11.33
2022-09-11T15:46:59.796Z,9.47
2022-09-11T15:49:29.175Z,9.77
2022-09-11T15:51:59.579Z,8.77
2022-09-11T15:54:27.848Z,8.50
2022-09-11T15:56:56.167Z,9.17
2022-09-11T15:59:23.926Z,8.93
2022-09-11T16:01:51.917Z,9.20
2022-09-11T16:04:23.019Z,9.27
2022-09-11T16:06:51.507Z,8.53
2022-09-11T16:09:23.101Z,11.57
2022-09-11T16:11:52.194Z,9.60
2022-09-11T16:14:21.777Z,7.00
2022-09-11T16:16:49.730Z,7.70
2022-09-11T16:19:19.943Z,12.03
2022-09-11T16:21:48.778Z,6.70
2022-09-11T16:24:16.891Z,11.17
2022-09-11T16:26:46.289Z,8.87
2022-09-11T16:29:17.909Z,11.57
2022-09-11T16:31:45.859Z,7.87
2022-09-11T16:34:15.035Z,8.43
2022-09-11T16:36:42.999Z,7.40
2022-09-11T16:39:13.046Z,7.23
2022-09-11T16:41:40.887Z,7.37
2022-09-11T16:44:12.797Z,7.43
2022-09-11T16:46:42.208Z,8.23
2022-09-11T16:49:11.109Z,9.90
2022-09-11T16:51:38.940Z,8.47
2022-09-11T16:54:07.725Z,7.07
2022-09-11T16:56:35.533Z,8.03
2022-09-11T16:59:03.288Z,8.40
2022-09-11T17:01:32.394Z,9.30
2022-09-11T17:04:00.205Z,8.83
2022-09-11T17:06:29.878Z,8.03
2022-09-11T17:09:00.134Z,12.23
2022-09-11T17:11:29.685Z,9.90
2022-09-11T17:13:57.906Z,7.60
2022-09-11T17:16:28.191Z,8.43
2022-09-11T17:18:58.413Z,7.90
2022-09-11T17:21:27.619Z,8.37
2022-09-11T17:23:57.016Z,10.40
2022-09-11T17:26:25.189Z,9.17
2022-09-11T17:28:55.062Z,8.80
2022-09-11T17:31:23.535Z,10.27
2022-09-11T17:33:51.448Z,9.83
2022-09-11T17:36:22.231Z,8.17
2022-09-11T17:38:52.492Z,9.27
2022-09-11T17:41:21.857Z,9.07
2022-09-11T17:43:49.926Z,10.97
2022-09-11T17:46:19.826Z,12.40
2022-09-11T17:48:48.025Z,10.83
2022-09-11T17:51:20.115Z,10.03
2022-09-11T17:53:51.435Z,14.43
2022-09-11T17:56:20.879Z,18.73
2022-09-11T17:58:51.351Z,14.10
2022-09-11T18:01:19.972Z,17.60
2022-09-11T18:03:52.535Z,16.10
2022-09-11T18:06:25.378Z,20.37
2022-09-11T18:08:56.551Z,13.67
2022-09-11T18:11:24.877Z,13.30
2022-09-11T18:13:53.606Z,18.70
2022-09-11T18:16:21.592Z,16.27
2022-09-11T18:18:49.420Z,20.70
2022-09-11T18:21:17.371Z,40.17
2022-09-11T18:23:46.499Z,33.17
2022-09-11T18:26:23.116Z,31.83
2022-09-11T18:28:51.593Z,33.70
2022-09-11T18:31:20.058Z,42.97
2022-09-11T18:33:54.594Z,39.83
2022-09-11T18:36:23.480Z,42.83
2022-09-11T18:38:51.628Z,34.20
2022-09-11T18:41:21.572Z,46.77
2022-09-11T18:43:49.383Z,51.77
2022-09-11T18:46:17.221Z,41.27
2022-09-11T18:48:45.659Z,39.03
2022-09-11T18:51:15.177Z,35.47
2022-09-11T18:53:43.555Z,32.80
2022-09-11T18:56:12.148Z,31.03
2022-09-11T18:58:41.826Z,32.53
2022-09-11T19:01:12.082Z,30.83
2022-09-11T19:03:41.669Z,32.53
2022-09-11T19:06:11.683Z,29.43
2022-09-11T19:08:41.297Z,29.37
2022-09-11T19:11:10.834Z,30.83
2022-09-11T19:13:39.928Z,36.43
2022-09-11T19:16:09.821Z,29.90
2022-09-11T19:18:39.308Z,22.50
2022-09-11T19:21:10.256Z,24.60
2022-09-11T19:23:40.253Z,24.70
2022-09-11T19:26:12.017Z,30.30
2022-09-11T19:28:42.146Z,21.97
2022-09-11T19:31:13.142Z,16.67
2022-09-11T19:33:48.182Z,19.30
2022-09-11T19:36:18.303Z,23.07
2022-09-11T19:38:49.570Z,21.03
2022-09-11T19:41:20.394Z,21.67
2022-09-11T19:43:48.761Z,29.30
2022-09-11T19:46:19.656Z,23.77
2022-09-11T19:48:48.776Z,20.93
2022-09-11T19:51:21.404Z,26.23
2022-09-11T19:53:50.776Z,20.33
2022-09-11T19:56:19.695Z,23.23
2022-09-11T19:58:47.667Z,19.80
2022-09-11T20:01:18.476Z,22.87
2022-09-11T20:03:48.800Z,23.87
2022-09-11T20:06:18.352Z,23.43
2022-09-11T20:08:48.269Z,27.50
2022-09-11T20:11:18.890Z,21.23
2022-09-11T20:13:47.322Z,27.70
2022-09-11T20:16:20.132Z,30.33
2022-09-11T20:18:48.384Z,21.33
2022-09-11T20:21:17.519Z,24.40
2022-09-11T20:23:46.570Z,23.83
2022-09-11T20:26:17.551Z,25.70
2022-09-11T20:28:46.334Z,24.23
2022-09-11T20:31:15.368Z,24.50
2022-09-11T20:33:46.198Z,25.77
2022-09-11T20:36:14.815Z,23.73
2022-09-11T20:38:43.033Z,22.57
2022-09-11T20:41:14.871Z,25.17
2022-09-11T20:43:43.008Z,22.27
2022-09-11T20:46:11.372Z,21.90
2022-09-11T20:48:39.541Z,23.63
2022-09-11T20:51:11.039Z,20.13
2022-09-11T20:53:41.689Z,25.23
2022-09-11T20:56:12.537Z,22.77
2022-09-11T20:58:40.387Z,19.37
2022-09-11T21:01:11.362Z,25.63
2022-09-11T21:03:39.095Z,24.00
2022-09-11T21:06:09.657Z,19.83
2022-09-11T21:08:37.614Z,24.67
2022-09-11T21:11:06.908Z,24.30
2022-09-11T21:13:35.932Z,27.20
2022-09-11T21:16:06.963Z,23.67
2022-09-11T21:18:35.605Z,21.77
2022-09-11T21:21:03.561Z,21.17
2022-09-11T21:23:33.398Z,21.10
2022-09-11T21:26:01.191Z,21.87
2022-09-11T21:28:29.348Z,30.13
2022-09-11T21:31:02.021Z,22.97
2022-09-11T21:33:30.503Z,22.33
2022-09-11T21:35:58.544Z,28.50
2022-09-11T21:38:29.459Z,22.93
2022-09-11T21:41:00.789Z,29.73
2022-09-11T21:43:29.795Z,25.53
2022-09-11T21:45:57.764Z,26.23
2022-09-11T21:48:25.980Z,23.67
2022-09-11T21:50:53.906Z,26.73
2022-09-11T21:53:22.121Z,23.90
2022-09-11T21:55:49.990Z,20.40
2022-09-11T21:58:21.188Z,26.17
2022-09-11T22:00:49.936Z,17.47
2022-09-11T22:03:19.665Z,18.13
2022-09-11T22:05:52.182Z,17.07
2022-09-11T22:08:20.873Z,20.10
2022-09-11T22:10:51.473Z,22.33
2022-09-11T22:13:21.086Z,28.43
2022-09-11T22:15:51.649Z,23.80
2022-09-11T22:18:20.106Z,24.40
2022-09-11T22:20:48.058Z,24.90
2022-09-11T22:23:18.117Z,24.07
2022-09-11T22:25:47.062Z,23.07
2022-09-11T22:28:15.973Z,24.57
2022-09-11T22:30:45.523Z,23.00
2022-09-11T22:33:13.335Z,22.63
2022-09-11T22:35:41.176Z,22.13
2022-09-11T22:38:08.975Z,26.60
2022-09-11T22:40:36.944Z,25.77
2022-09-11T22:43:04.734Z,19.87
2022-09-11T22:45:32.949Z,26.50
2022-09-11T22:48:02.799Z,23.27
2022-09-11T22:50:31.001Z,29.10
2022-09-11T22:52:58.845Z,28.47
2022-09-11T22:55:26.911Z,30.87
2022-09-11T22:57:55.238Z,33.53
2022-09-11T23:00:23.161Z,34.93
2022-09-11T23:02:50.886Z,32.70
2022-09-11T23:05:38.004Z,27.13
2022-09-11T23:08:05.772Z,32.30
2022-09-11T23:10:33.612Z,34.40
2022-09-11T23:13:01.423Z,33.60
2022-09-11T23:15:29.149Z,30.07
2022-09-11T23:17:56.878Z,27.87
2022-09-11T23:20:26.325Z,30.53
2022-09-11T23:22:54.396Z,33.37
2022-09-11T23:25:22.277Z,31.37
2022-09-11T23:27:50.127Z,27.57
2022-09-11T23:30:18.117Z,27.83
2022-09-11T23:32:46.008Z,28.53
2022-09-11T23:35:14.071Z,34.17
2022-09-11T23:37:45.464Z,26.17
2022-09-11T23:40:13.535Z,30.30
2022-09-11T23:42:41.418Z,28.63
2022-09-11T23:45:12.636Z,31.03
2022-09-11T23:47:40.719Z,30.53
2022-09-11T23:50:09.538Z,30.73
2022-09-11T23:52:39.413Z,28.07
2022-09-11T23:55:09.414Z,29.03
2022-09-11T23:57:37.449Z,30.57
